sensor_id;sensor_type;location;lat;lon;timestamp;pressure;altitude;pressure_sealevel;temperature;humidity
35908;BME280;22003;50.320;8.054;2023-01-25T05:01:14;101434.34;;;-0.17;100.00
35908;BME280;22003;50.320;8.054;2023-01-25T05:03:39;101412.94;;;-0.65;100.00
35908;BME280;22003;50.320;8.054;2023-01-25T05:06:05;101411.28;;;-0.76;100.00
35908;BME280;22003;50.320;8.054;2023-01-25T05:08:30;101384.50;;;-1.01;100.00
35908;BME280;22003;50.320;8.054;2023-01-25T05:10:55;101403.53;;;-0.90;100.00
35908;BME280;22003;50.320;8.054;2023-01-25T05:13:22;101425.22;;;-0.93;100.00
35908;BME280;22003;50.320;8.054;2023-01-25T05:15:47;101426.06;;;-0.86;100.00
35908;BME280;22003;50.320;8.054;2023-01-25T05:18:12;101400.06;;;-0.95;100.00
35908;BME280;22003;50.320;8.054;2023-01-25T05:20:38;101434.59;;;-0.54;100.00
35908;BME280;22003;50.320;8.054;2023-01-25T05:23:03;101344.63;;;-1.07;100.00
35908;BME280;22003;50.320;8.054;2023-01-25T05:25:28;101421.56;;;-0.57;100.00
35908;BME280;22003;50.320;8.054;2023-01-25T05:28:12;101400.88;;;-0.81;100.00
35908;BME280;22003;50.320;8.054;2023-01-25T05:30:37;101361.09;;;-1.01;100.00
35908;BME280;22003;50.320;8.054;2023-01-25T05:33:03;101405.94;;;-0.57;100.00
35908;BME280;22003;50.320;8.054;2023-01-25T05:35:28;101443.19;;;-0.42;100.00
35908;BME280;22003;50.320;8.054;2023-01-25T05:37:57;101449.31;;;-0.48;100.00
35908;BME280;22003;50.320;8.054;2023-01-25T05:40:23;101432.91;;;-0.61;100.00
35908;BME280;22003;50.320;8.054;2023-01-25T05:42:54;101405.06;;;-0.56;100.00
35908;BME280;22003;50.320;8.054;2023-01-25T05:45:19;101408.59;;;-0.60;100.00
35908;BME280;22003;50.320;8.054;2023-01-25T05:47:44;101421.47;;;-0.40;100.00
35908;BME280;22003;50.320;8.054;2023-01-25T05:50:10;101361.75;;;-0.63;100.00
35908;BME280;22003;50.320;8.054;2023-01-25T05:52:35;101399.00;;;-0.53;100.00
35908;BME280;22003;50.320;8.054;2023-01-25T05:55:00;101394.75;;;-0.69;100.00
35908;BME280;22003;50.320;8.054;2023-01-25T05:57:25;101400.81;;;-0.66;100.00
35908;BME280;22003;50.320;8.054;2023-01-25T05:59:53;101390.38;;;-0.67;100.00
35908;BME280;22003;50.320;8.054;2023-01-25T06:02:18;101288.44;;;-1.35;100.00
35908;BME280;22003;50.320;8.054;2023-01-25T06:04:43;101427.63;;;-0.51;100.00
35908;BME280;22003;50.320;8.054;2023-01-25T06:07:08;101371.47;;;-0.94;100.00
35908;BME280;22003;50.320;8.054;2023-01-25T06:09:34;101319.59;;;-1.24;100.00
35908;BME280;22003;50.320;8.054;2023-01-25T06:11:59;101350.66;;;-0.95;100.00
35908;BME280;22003;50.320;8.054;2023-01-25T06:14:24;101376.59;;;-0.82;100.00
35908;BME280;22003;50.320;8.054;2023-01-25T06:16:49;101369.72;;;-0.93;100.00
35908;BME280;22003;50.320;8.054;2023-01-25T06:19:15;101381.84;;;-0.89;100.00
35908;BME280;22003;50.320;8.054;2023-01-25T06:21:40;101404.25;;;-0.61;100.00
35908;BME280;22003;50.320;8.054;2023-01-25T06:24:05;101391.31;;;-0.74;100.00
35908;BME280;22003;50.320;8.054;2023-01-25T06:26:31;101389.63;;;-0.83;100.00
35908;BME280;22003;50.320;8.054;2023-01-25T06:28:56;101356.78;;;-1.07;100.00
35908;BME280;22003;50.320;8.054;2023-01-25T06:31:21;101430.31;;;-0.65;100.00
35908;BME280;22003;50.320;8.054;2023-01-25T06:33:48;101412.09;;;-0.68;100.00
35908;BME280;22003;50.320;8.054;2023-01-25T06:36:17;101402.66;;;-0.86;100.00
35908;BME280;22003;50.320;8.054;2023-01-25T06:38:47;101419.06;;;-0.72;100.00
35908;BME280;22003;50.320;8.054;2023-01-25T06:41:12;101382.78;;;-0.99;100.00
35908;BME280;22003;50.320;8.054;2023-01-25T06:43:38;101391.41;;;-0.93;100.00
35908;BME280;22003;50.320;8.054;2023-01-25T06:46:07;101420.81;;;-0.77;100.00
35908;BME280;22003;50.320;8.054;2023-01-25T06:48:33;101383.63;;;-0.97;100.00
35908;BME280;22003;50.320;8.054;2023-01-25T06:51:04;101302.34;;;-1.48;100.00
35908;BME280;22003;50.320;8.054;2023-01-25T06:53:32;101420.81;;;-0.77;100.00
35908;BME280;22003;50.320;8.054;2023-01-25T06:56:06;101405.28;;;-0.92;100.00
35908;BME280;22003;50.320;8.054;2023-01-25T06:58:32;101394.91;;;-1.06;100.00
35908;BME280;22003;50.320;8.054;2023-01-25T07:01:00;101403.59;;;-1.02;100.00
35908;BME280;22003;50.320;8.054;2023-01-25T07:03:26;101356.91;;;-1.39;100.00
35908;BME280;22003;50.320;8.054;2023-01-25T07:05:57;101370.78;;;-1.43;100.00
35908;BME280;22003;50.320;8.054;2023-01-25T07:08:22;101390.63;;;-1.22;100.00
35908;BME280;22003;50.320;8.054;2023-01-25T07:11:08;101433.91;;;-0.92;100.00
35908;BME280;22003;50.320;8.054;2023-01-25T07:13:37;101411.38;;;-0.99;100.00
35908;BME280;22003;50.320;8.054;2023-01-25T07:16:04;101399.25;;;-1.03;100.00
35908;BME280;22003;50.320;8.054;2023-01-25T07:18:30;101432.84;;;-0.55;100.00
35908;BME280;22003;50.320;8.054;2023-01-25T07:21:05;101348.94;;;-1.06;100.00
35908;BME280;22003;50.320;8.054;2023-01-25T07:23:31;101431.16;;;-0.65;100.00
35908;BME280;22003;50.320;8.054;2023-01-25T07:25:57;101397.44;;;-0.82;100.00
35908;BME280;22003;50.320;8.054;2023-01-25T07:28:23;101387.03;;;-0.83;100.00
35908;BME280;22003;50.320;8.054;2023-01-25T07:30:49;101398.19;;;-0.64;100.00
35908;BME280;22003;50.320;8.054;2023-01-25T07:33:15;101335.06;;;-1.01;100.00
35908;BME280;22003;50.320;8.054;2023-01-25T07:35:40;101390.44;;;-0.70;100.00
35908;BME280;22003;50.320;8.054;2023-01-25T07:38:05;101369.63;;;-0.72;100.00
35908;BME280;22003;50.320;8.054;2023-01-25T07:40:31;101420.63;;;-0.42;100.00
35908;BME280;22003;50.320;8.054;2023-01-25T07:42:56;101406.06;;;-0.75;100.00
35908;BME280;22003;50.320;8.054;2023-01-25T07:45:22;101310.84;;;-1.13;100.00
35908;BME280;22003;50.320;8.054;2023-01-25T07:47:54;101385.22;;;-0.70;100.00
35908;BME280;22003;50.320;8.054;2023-01-25T07:50:19;101413.75;;;-0.57;100.00
35908;BME280;22003;50.320;8.054;2023-01-25T07:52:45;101342.88;;;-1.01;100.00
35908;BME280;22003;50.320;8.054;2023-01-25T07:55:10;101383.50;;;-0.71;100.00
35908;BME280;22003;50.320;8.054;2023-01-25T07:57:35;101370.47;;;-0.73;100.00
35908;BME280;22003;50.320;8.054;2023-01-25T08:00:00;101400.59;;;-0.32;100.00
35908;BME280;22003;50.320;8.054;2023-01-25T08:02:26;101416.25;;;-0.40;100.00
35908;BME280;22003;50.320;8.054;2023-01-25T08:04:51;101411.06;;;-0.38;100.00
35908;BME280;22003;50.320;8.054;2023-01-25T08:07:16;101398.09;;;-0.44;100.00
35908;BME280;22003;50.320;8.054;2023-01-25T08:09:42;101383.38;;;-0.53;100.00
35908;BME280;22003;50.320;8.054;2023-01-25T08:12:07;101347.88;;;-0.68;100.00
35908;BME280;22003;50.320;8.054;2023-01-25T08:14:32;101338.53;;;-1.01;100.00
35908;BME280;22003;50.320;8.054;2023-01-25T08:16:58;101379.97;;;-0.63;100.00
35908;BME280;22003;50.320;8.054;2023-01-25T08:19:23;101400.59;;;-0.31;100.00
35908;BME280;22003;50.320;8.054;2023-01-25T08:21:50;101414.44;;;-0.29;100.00
35908;BME280;22003;50.320;8.054;2023-01-25T08:24:16;101406.75;;;-0.44;100.00
35908;BME280;22003;50.320;8.054;2023-01-25T08:26:41;101411.13;;;-0.49;100.00
35908;BME280;22003;50.320;8.054;2023-01-25T08:29:08;101397.13;;;-0.33;100.00
35908;BME280;22003;50.320;8.054;2023-01-25T08:31:35;101342.69;;;-0.65;100.00
35908;BME280;22003;50.320;8.054;2023-01-25T08:34:02;101372.00;;;-0.41;100.00
35908;BME280;22003;50.320;8.054;2023-01-25T08:36:27;101390.94;;;-0.19;100.00
35908;BME280;22003;50.320;8.054;2023-01-25T08:38:58;101406.22;;;0.22;100.00
35908;BME280;22003;50.320;8.054;2023-01-25T08:41:25;101414.09;;;0.16;100.00
35908;BME280;22003;50.320;8.054;2023-01-25T08:43:52;101407.28;;;0.06;100.00
35908;BME280;22003;50.320;8.054;2023-01-25T08:46:18;101376.41;;;-0.48;100.00
35908;BME280;22003;50.320;8.054;2023-01-25T08:48:43;101404.88;;;-0.25;100.00
35908;BME280;22003;50.320;8.054;2023-01-25T08:51:13;101411.84;;;-0.27;100.00
35908;BME280;22003;50.320;8.054;2023-01-25T08:53:39;101384.94;;;-0.26;100.00
35908;BME280;22003;50.320;8.054;2023-01-25T08:56:10;101410.06;;;-0.19;100.00
35908;BME280;22003;50.320;8.054;2023-01-25T08:58:45;101373.72;;;-0.37;100.00
35908;BME280;22003;50.320;8.054;2023-01-25T09:01:12;101347.78;;;-0.52;100.00
35908;BME280;22003;50.320;8.054;2023-01-25T09:03:40;101294.19;;;-0.80;100.00
35908;BME280;22003;50.320;8.054;2023-01-25T09:06:06;101401.25;;;-0.03;100.00
35908;BME280;22003;50.320;8.054;2023-01-25T09:08:32;101400.34;;;-0.02;100.00
35908;BME280;22003;50.320;8.054;2023-01-25T09:11:04;101397.66;;;0.11;100.00
35908;BME280;22003;50.320;8.054;2023-01-25T09:13:30;101253.44;;;-0.84;100.00
35908;BME280;22003;50.320;8.054;2023-01-25T09:16:06;101400.31;;;0.05;100.00
35908;BME280;22003;50.320;8.054;2023-01-25T09:18:33;101346.19;;;-0.70;100.00
35908;BME280;22003;50.320;8.054;2023-01-25T09:21:05;101394.47;;;-0.28;100.00
35908;BME280;22003;50.320;8.054;2023-01-25T09:23:31;101371.19;;;-0.46;100.00
35908;BME280;22003;50.320;8.054;2023-01-25T09:25:57;101385.66;;;-0.09;100.00
35908;BME280;22003;50.320;8.054;2023-01-25T09:28:23;101308.50;;;-0.23;100.00
35908;BME280;22003;50.320;8.054;2023-01-25T09:31:04;101377.59;;;0.20;100.00
35908;BME280;22003;50.320;8.054;2023-01-25T09:33:34;101351.78;;;-0.07;100.00
35908;BME280;22003;50.320;8.054;2023-01-25T09:36:00;101367.28;;;0.08;100.00
35908;BME280;22003;50.320;8.054;2023-01-25T09:38:27;101370.69;;;0.15;100.00
35908;BME280;22003;50.320;8.054;2023-01-25T09:46:57;101376.72;;;0.23;100.00
35908;BME280;22003;50.320;8.054;2023-01-25T09:54:53;101335.00;;;0.23;100.00
35908;BME280;22003;50.320;8.054;2023-01-25T09:57:25;101343.97;;;-0.09;100.00
35908;BME280;22003;50.320;8.054;2023-01-25T09:59:52;101337.06;;;-0.13;100.00
35908;BME280;22003;50.320;8.054;2023-01-25T10:02:36;101183.38;;;-1.05;100.00
35908;BME280;22003;50.320;8.054;2023-01-25T10:05:12;101346.69;;;-0.19;100.00
35908;BME280;22003;50.320;8.054;2023-01-25T10:08:43;101350.31;;;-0.42;100.00
35908;BME280;22003;50.320;8.054;2023-01-25T10:10:41;101343.31;;;-0.32;100.00
35908;BME280;22003;50.320;8.054;2023-01-25T10:13:11;101319.19;;;-0.57;100.00
35908;BME280;22003;50.320;8.054;2023-01-25T10:15:49;101351.13;;;-0.32;100.00
35908;BME280;22003;50.320;8.054;2023-01-25T10:18:30;101343.34;;;-0.37;100.00
35908;BME280;22003;50.320;8.054;2023-01-25T10:21:01;101340.78;;;-0.46;100.00
35908;BME280;22003;50.320;8.054;2023-01-25T10:26:24;101337.47;;;-0.65;100.00
35908;BME280;22003;50.320;8.054;2023-01-25T10:29:19;101333.16;;;-0.70;100.00
35908;BME280;22003;50.320;8.054;2023-01-25T10:31:53;101303.72;;;-0.77;100.00
35908;BME280;22003;50.320;8.054;2023-01-25T10:36:56;101333.81;;;-0.38;100.00
35908;BME280;22003;50.320;8.054;2023-01-25T10:39:25;101270.75;;;-0.76;100.00
35908;BME280;22003;50.320;8.054;2023-01-25T10:42:01;101299.78;;;-0.19;100.00
35908;BME280;22003;50.320;8.054;2023-01-25T10:44:29;101292.13;;;-0.36;100.00
35908;BME280;22003;50.320;8.054;2023-01-25T10:47:23;101305.50;;;0.19;100.00
35908;BME280;22003;50.320;8.054;2023-01-25T10:49:52;101229.66;;;-0.38;100.00
35908;BME280;22003;50.320;8.054;2023-01-25T10:52:28;101290.56;;;0.32;100.00
35908;BME280;22003;50.320;8.054;2023-01-25T10:55:13;101301.41;;;-0.08;100.00
35908;BME280;22003;50.320;8.054;2023-01-25T10:57:43;101285.88;;;-0.15;100.00
35908;BME280;22003;50.320;8.054;2023-01-25T11:00:36;101298.94;;;-0.20;100.00
35908;BME280;22003;50.320;8.054;2023-01-25T11:03:02;101247.25;;;-0.69;100.00
35908;BME280;22003;50.320;8.054;2023-01-25T11:05:37;101293.00;;;-0.37;100.00
35908;BME280;22003;50.320;8.054;2023-01-25T11:08:33;101292.19;;;-0.45;100.00
35908;BME280;22003;50.320;8.054;2023-01-25T11:10:59;101240.28;;;-0.64;100.00
35908;BME280;22003;50.320;8.054;2023-01-25T11:13:39;101219.59;;;-0.77;100.00
35908;BME280;22003;50.320;8.054;2023-01-25T11:16:31;101264.38;;;-0.37;100.00
35908;BME280;22003;50.320;8.054;2023-01-25T11:18:59;101213.47;;;-0.72;100.00
35908;BME280;22003;50.320;8.054;2023-01-25T11:21:26;101259.25;;;-0.48;100.00
35908;BME280;22003;50.320;8.054;2023-01-25T11:26:27;101256.72;;;-0.59;100.00
35908;BME280;22003;50.320;8.054;2023-01-25T11:31:38;101232.66;;;-0.87;100.00
35908;BME280;22003;50.320;8.054;2023-01-25T11:34:20;101253.31;;;-0.67;100.00
35908;BME280;22003;50.320;8.054;2023-01-25T11:37:14;101228.31;;;-0.83;100.00
35908;BME280;22003;50.320;8.054;2023-01-25T11:40:15;101235.19;;;-0.76;100.00
35908;BME280;22003;50.320;8.054;2023-01-25T11:43:02;101230.88;;;-0.77;100.00
35908;BME280;22003;50.320;8.054;2023-01-25T11:45:51;101244.31;;;-0.28;100.00
35908;BME280;22003;50.320;8.054;2023-01-25T11:51:16;101208.41;;;-0.01;100.00
35908;BME280;22003;50.320;8.054;2023-01-25T11:53:56;101200.53;;;0.07;100.00
35908;BME280;22003;50.320;8.054;2023-01-25T12:02:39;101199.56;;;0.14;100.00
35908;BME280;22003;50.320;8.054;2023-01-25T12:08:15;101181.88;;;0.37;100.00
35908;BME280;22003;50.320;8.054;2023-01-25T12:10:57;101147.88;;;-0.21;100.00
35908;BME280;22003;50.320;8.054;2023-01-25T12:13:48;101176.66;;;-0.35;100.00
35908;BME280;22003;50.320;8.054;2023-01-25T12:16:49;101174.22;;;-0.49;100.00
35908;BME280;22003;50.320;8.054;2023-01-25T12:19:38;101168.22;;;-0.59;100.00
35908;BME280;22003;50.320;8.054;2023-01-25T12:22:23;101156.16;;;-0.67;100.00
35908;BME280;22003;50.320;8.054;2023-01-25T12:25:18;101153.38;;;-0.49;100.00
35908;BME280;22003;50.320;8.054;2023-01-25T12:30:23;101123.81;;;-0.45;100.00
35908;BME280;22003;50.320;8.054;2023-01-25T12:33:58;101139.97;;;-0.14;100.00
35908;BME280;22003;50.320;8.054;2023-01-25T12:36:13;101103.00;;;-0.45;100.00
35908;BME280;22003;50.320;8.054;2023-01-25T12:41:29;101072.00;;;-0.68;100.00
35908;BME280;22003;50.320;8.054;2023-01-25T12:44:07;101117.88;;;-0.55;100.00
35908;BME280;22003;50.320;8.054;2023-01-25T12:46:41;101108.34;;;-0.59;100.00
35908;BME280;22003;50.320;8.054;2023-01-25T12:49:29;101090.22;;;-0.66;100.00
35908;BME280;22003;50.320;8.054;2023-01-25T12:52:00;101080.84;;;-0.81;100.00
35908;BME280;22003;50.320;8.054;2023-01-25T12:54:37;101088.53;;;-0.70;100.00
35908;BME280;22003;50.320;8.054;2023-01-25T13:03:17;101056.69;;;-0.94;100.00
35908;BME280;22003;50.320;8.054;2023-01-25T13:05:55;101041.94;;;-0.93;100.00
35908;BME280;22003;50.320;8.054;2023-01-25T13:08:31;101034.16;;;-0.96;100.00
35908;BME280;22003;50.320;8.054;2023-01-25T13:11:11;101063.31;;;-0.67;100.00
35908;BME280;22003;50.320;8.054;2023-01-25T13:13:38;100999.56;;;-1.04;100.00
35908;BME280;22003;50.320;8.054;2023-01-25T13:18:55;101054.72;;;-0.72;100.00
35908;BME280;22003;50.320;8.054;2023-01-25T13:21:39;101046.22;;;-0.91;100.00
35908;BME280;22003;50.320;8.054;2023-01-25T13:24:22;101044.47;;;-0.87;100.00
35908;BME280;22003;50.320;8.054;2023-01-25T13:32:53;100987.50;;;-0.39;100.00
35908;BME280;22003;50.320;8.054;2023-01-25T13:35:00;101048.72;;;-0.08;100.00
35908;BME280;22003;50.320;8.054;2023-01-25T13:37:31;101037.63;;;-0.22;100.00
35908;BME280;22003;50.320;8.054;2023-01-25T13:39:59;101006.69;;;-0.46;100.00
35908;BME280;22003;50.320;8.054;2023-01-25T13:42:25;101033.34;;;-0.26;100.00
35908;BME280;22003;50.320;8.054;2023-01-25T13:44:57;101027.34;;;0.29;100.00
35908;BME280;22003;50.320;8.054;2023-01-25T13:47:26;100995.09;;;-0.21;100.00
35908;BME280;22003;50.320;8.054;2023-01-25T13:52:25;100936.41;;;-0.46;100.00
35908;BME280;22003;50.320;8.054;2023-01-25T13:54:54;100996.69;;;-0.12;100.00
35908;BME280;22003;50.320;8.054;2023-01-25T13:57:28;100940.81;;;-0.50;100.00
35908;BME280;22003;50.320;8.054;2023-01-25T14:00:03;100950.78;;;-0.19;100.00
35908;BME280;22003;50.320;8.054;2023-01-25T14:02:29;100981.09;;;-0.14;100.00
35908;BME280;22003;50.320;8.054;2023-01-25T14:04:55;100972.75;;;-0.40;100.00
35908;BME280;22003;50.320;8.054;2023-01-25T14:07:29;100975.03;;;-0.16;100.00
35908;BME280;22003;50.320;8.054;2023-01-25T14:10:05;100918.81;;;-0.94;100.00
35908;BME280;22003;50.320;8.054;2023-01-25T14:12:40;100954.16;;;-0.79;100.00
35908;BME280;22003;50.320;8.054;2023-01-25T14:15:24;100974.06;;;-0.73;100.00
35908;BME280;22003;50.320;8.054;2023-01-25T14:18:15;100966.94;;;-0.59;100.00
35908;BME280;22003;50.320;8.054;2023-01-25T14:20:46;100928.47;;;-0.37;100.00
35908;BME280;22003;50.320;8.054;2023-01-25T14:23:28;100957.75;;;-0.21;100.00
35908;BME280;22003;50.320;8.054;2023-01-25T14:25:55;100947.91;;;-0.03;100.00
35908;BME280;22003;50.320;8.054;2023-01-25T14:28:24;100876.53;;;-0.46;100.00
35908;BME280;22003;50.320;8.054;2023-01-25T14:30:52;100944.19;;;0.14;100.00
35908;BME280;22003;50.320;8.054;2023-01-25T14:33:27;100863.91;;;-0.74;100.00
35908;BME280;22003;50.320;8.054;2023-01-25T14:35:54;100941.78;;;0.02;100.00
35908;BME280;22003;50.320;8.054;2023-01-25T14:38:33;100917.28;;;-0.44;100.00
35908;BME280;22003;50.320;8.054;2023-01-25T14:43:42;100932.56;;;-0.21;100.00
35908;BME280;22003;50.320;8.054;2023-01-25T14:46:30;100941.44;;;-0.34;100.00
35908;BME280;22003;50.320;8.054;2023-01-25T14:49:15;100885.41;;;-0.60;100.00
35908;BME280;22003;50.320;8.054;2023-01-25T14:51:49;100927.59;;;-0.36;100.00
35908;BME280;22003;50.320;8.054;2023-01-25T14:54:21;100920.56;;;-0.31;100.00
35908;BME280;22003;50.320;8.054;2023-01-25T14:59:29;100927.03;;;-0.60;100.00
35908;BME280;22003;50.320;8.054;2023-01-25T15:01:57;100904.81;;;-0.85;100.00
35908;BME280;22003;50.320;8.054;2023-01-25T15:04:24;100901.50;;;-0.96;100.00
35908;BME280;22003;50.320;8.054;2023-01-25T15:06:51;100917.09;;;-0.96;100.00
35908;BME280;22003;50.320;8.054;2023-01-25T15:09:37;100911.94;;;-1.01;100.00
35908;BME280;22003;50.320;8.054;2023-01-25T15:12:05;100916.44;;;-1.14;100.00
35908;BME280;22003;50.320;8.054;2023-01-25T15:14:53;100901.75;;;-1.18;100.00
35908;BME280;22003;50.320;8.054;2023-01-25T15:17:41;100904.34;;;-1.18;100.00
35908;BME280;22003;50.320;8.054;2023-01-25T15:22:51;100888.03;;;-1.34;100.00
35908;BME280;22003;50.320;8.054;2023-01-25T15:25:16;100882.00;;;-1.34;100.00
35908;BME280;22003;50.320;8.054;2023-01-25T15:27:42;100898.22;;;-1.12;100.00
35908;BME280;22003;50.320;8.054;2023-01-25T15:30:14;100856.94;;;-1.38;100.00
35908;BME280;22003;50.320;8.054;2023-01-25T15:32:40;100873.97;;;-1.14;100.00
35908;BME280;22003;50.320;8.054;2023-01-25T15:35:18;100862.31;;;-0.84;100.00
35908;BME280;22003;50.320;8.054;2023-01-25T15:37:45;100858.13;;;-0.94;100.00
35908;BME280;22003;50.320;8.054;2023-01-25T15:40:11;100881.16;;;-0.67;100.00
35908;BME280;22003;50.320;8.054;2023-01-25T15:42:37;100857.25;;;-0.93;100.00
35908;BME280;22003;50.320;8.054;2023-01-25T15:45:03;100845.97;;;-0.95;100.00
35908;BME280;22003;50.320;8.054;2023-01-25T15:47:29;100858.66;;;-0.72;100.00
35908;BME280;22003;50.320;8.054;2023-01-25T15:49:55;100868.28;;;-0.76;100.00
35908;BME280;22003;50.320;8.054;2023-01-25T15:52:20;100838.03;;;-0.83;100.00
35908;BME280;22003;50.320;8.054;2023-01-25T15:54:45;100870.88;;;-0.76;100.00
35908;BME280;22003;50.320;8.054;2023-01-25T15:57:29;100850.25;;;-0.88;100.00
35908;BME280;22003;50.320;8.054;2023-01-25T15:59:56;100797.72;;;-1.16;100.00
35908;BME280;22003;50.320;8.054;2023-01-25T16:02:21;100839.91;;;-0.94;100.00
35908;BME280;22003;50.320;8.054;2023-01-25T16:04:47;100822.44;;;-0.86;100.00
35908;BME280;22003;50.320;8.054;2023-01-25T16:07:25;100843.25;;;-0.83;100.00
35908;BME280;22003;50.320;8.054;2023-01-25T16:09:51;100821.63;;;-0.90;100.00
35908;BME280;22003;50.320;8.054;2023-01-25T16:12:17;100866.31;;;-0.60;100.00
35908;BME280;22003;50.320;8.054;2023-01-25T16:14:42;100826.03;;;-0.93;100.00
35908;BME280;22003;50.320;8.054;2023-01-25T16:17:16;100853.38;;;-0.65;100.00
35908;BME280;22003;50.320;8.054;2023-01-25T16:19:42;100855.75;;;-0.51;100.00
35908;BME280;22003;50.320;8.054;2023-01-25T16:22:10;100870.72;;;-0.64;100.00
35908;BME280;22003;50.320;8.054;2023-01-25T16:24:35;100838.81;;;-0.80;100.00
35908;BME280;22003;50.320;8.054;2023-01-25T16:27:01;100844.81;;;-0.71;100.00
35908;BME280;22003;50.320;8.054;2023-01-25T16:29:26;100765.91;;;-1.35;100.00
35908;BME280;22003;50.320;8.054;2023-01-25T16:31:52;100863.22;;;-0.87;100.00
35908;BME280;22003;50.320;8.054;2023-01-25T16:34:18;100871.25;;;-1.03;100.00
35908;BME280;22003;50.320;8.054;2023-01-25T16:36:47;100858.34;;;-1.13;100.00
35908;BME280;22003;50.320;8.054;2023-01-25T16:39:19;100866.22;;;-1.19;100.00
35908;BME280;22003;50.320;8.054;2023-01-25T16:41:45;100835.41;;;-1.52;100.00
35908;BME280;22003;50.320;8.054;2023-01-25T16:44:10;100783.75;;;-1.77;100.00
35908;BME280;22003;50.320;8.054;2023-01-25T16:46:36;100841.47;;;-1.52;100.00
35908;BME280;22003;50.320;8.054;2023-01-25T16:49:01;100864.66;;;-1.34;100.00
35908;BME280;22003;50.320;8.054;2023-01-25T16:51:31;100845.59;;;-1.34;100.00
35908;BME280;22003;50.320;8.054;2023-01-25T16:53:57;100861.63;;;-0.97;100.00
35908;BME280;22003;50.320;8.054;2023-01-25T16:56:27;100838.75;;;-1.38;100.00
35908;BME280;22003;50.320;8.054;2023-01-25T16:58:55;100778.41;;;-1.65;100.00
35908;BME280;22003;50.320;8.054;2023-01-25T17:01:21;100853.31;;;-1.25;100.00
35908;BME280;22003;50.320;8.054;2023-01-25T17:03:47;100663.22;;;-2.39;100.00
35908;BME280;22003;50.320;8.054;2023-01-25T17:06:19;100837.13;;;-1.50;100.00
35908;BME280;22003;50.320;8.054;2023-01-25T17:08:46;100822.50;;;-1.58;100.00
35908;BME280;22003;50.320;8.054;2023-01-25T17:11:12;100853.53;;;-1.43;100.00
35908;BME280;22003;50.320;8.054;2023-01-25T17:13:37;100835.28;;;-1.40;100.00
35908;BME280;22003;50.320;8.054;2023-01-25T17:16:02;100838.53;;;-1.21;100.00
35908;BME280;22003;50.320;8.054;2023-01-25T17:18:28;100806.38;;;-1.14;100.00
35908;BME280;22003;50.320;8.054;2023-01-25T17:21:02;100846.59;;;-0.76;100.00
35908;BME280;22003;50.320;8.054;2023-01-25T17:23:30;100843.25;;;-0.86;100.00
35908;BME280;22003;50.320;8.054;2023-01-25T17:25:55;100805.94;;;-0.84;100.00
35908;BME280;22003;50.320;8.054;2023-01-25T17:28:21;100832.97;;;-0.95;100.00
35908;BME280;22003;50.320;8.054;2023-01-25T17:30:47;100825.88;;;-0.84;100.00
35908;BME280;22003;50.320;8.054;2023-01-25T17:33:14;100835.44;;;-0.85;100.00
35908;BME280;22003;50.320;8.054;2023-01-25T17:35:40;100643.84;;;-2.07;100.00
35908;BME280;22003;50.320;8.054;2023-01-25T17:38:05;100813.53;;;-0.70;100.00
35908;BME280;22003;50.320;8.054;2023-01-25T17:40:33;100780.00;;;-0.90;100.00
35908;BME280;22003;50.320;8.054;2023-01-25T17:42:59;100777.91;;;-0.65;100.00
35908;BME280;22003;50.320;8.054;2023-01-25T17:45:25;100775.59;;;-0.83;100.00
35908;BME280;22003;50.320;8.054;2023-01-25T17:47:50;100762.09;;;-1.10;100.00
35908;BME280;22003;50.320;8.054;2023-01-25T17:50:16;100805.72;;;-0.68;100.00
35908;BME280;22003;50.320;8.054;2023-01-25T17:52:41;100780.84;;;-0.89;100.00
35908;BME280;22003;50.320;8.054;2023-01-25T17:55:07;100813.72;;;-0.84;100.00
35908;BME280;22003;50.320;8.054;2023-01-25T17:57:32;100774.47;;;-1.28;100.00
35908;BME280;22003;50.320;8.054;2023-01-25T17:59:59;100765.94;;;-1.38;100.00
35908;BME280;22003;50.320;8.054;2023-01-25T18:02:24;100784.72;;;-1.18;100.00
35908;BME280;22003;50.320;8.054;2023-01-25T18:04:50;100707.91;;;-1.40;100.00
35908;BME280;22003;50.320;8.054;2023-01-25T18:07:15;100746.69;;;-1.25;100.00
35908;BME280;22003;50.320;8.054;2023-01-25T18:09:40;100752.59;;;-1.11;100.00
35908;BME280;22003;50.320;8.054;2023-01-25T18:12:06;100758.53;;;-1.02;100.00
35908;BME280;22003;50.320;8.054;2023-01-25T18:14:31;100786.94;;;-0.89;100.00
35908;BME280;22003;50.320;8.054;2023-01-25T18:16:56;100737.06;;;-1.18;100.00
35908;BME280;22003;50.320;8.054;2023-01-25T18:19:22;100559.06;;;-2.12;100.00
35908;BME280;22003;50.320;8.054;2023-01-25T18:21:47;100753.38;;;-1.07;100.00
35908;BME280;22003;50.320;8.054;2023-01-25T18:26:57;100742.88;;;-0.99;100.00
35908;BME280;22003;50.320;8.054;2023-01-25T18:29:58;100775.34;;;-0.68;100.00
35908;BME280;22003;50.320;8.054;2023-01-25T18:32:25;100737.81;;;-1.09;100.00
35908;BME280;22003;50.320;8.054;2023-01-25T18:34:50;100767.69;;;-0.77;100.00
35908;BME280;22003;50.320;8.054;2023-01-25T18:37:18;100684.53;;;-1.42;100.00
35908;BME280;22003;50.320;8.054;2023-01-25T18:39:50;100745.72;;;-1.16;100.00
35908;BME280;22003;50.320;8.054;2023-01-25T18:42:16;100764.63;;;-1.05;100.00
35908;BME280;22003;50.320;8.054;2023-01-25T18:44:41;100659.06;;;-1.80;100.00
35908;BME280;22003;50.320;8.054;2023-01-25T18:47:09;100756.28;;;-1.28;100.00
35908;BME280;22003;50.320;8.054;2023-01-25T18:49:38;100685.88;;;-1.78;100.00
35908;BME280;22003;50.320;8.054;2023-01-25T18:52:04;100685.91;;;-1.79;100.00
35908;BME280;22003;50.320;8.054;2023-01-25T18:54:30;100736.72;;;-1.55;100.00
35908;BME280;22003;50.320;8.054;2023-01-25T18:56:55;100669.69;;;-1.98;100.00
35908;BME280;22003;50.320;8.054;2023-01-25T18:59:20;100698.59;;;-1.56;100.00
35908;BME280;22003;50.320;8.054;2023-01-25T19:01:45;100712.94;;;-1.28;100.00
35908;BME280;22003;50.320;8.054;2023-01-25T19:04:10;100699.91;;;-1.25;100.00